sensor_id;sensor_type;location;lat;lon;timestamp;P1;P2;P0
66622;PMS5003;53493;50.888;20.650;2024-01-30T06:10:13;15;13;9
66622;PMS5003;53493;50.888;20.650;2024-01-30T06:20:11;15;13;9
66622;PMS5003;53493;50.888;20.650;2024-01-30T06:40:03;21;18;10
66622;PMS5003;53493;50.888;20.650;2024-01-30T06:50:15;21;18;10
66622;PMS5003;53493;50.888;20.650;2024-01-30T07:40:11;16;12;8
66622;PMS5003;53493;50.888;20.650;2024-01-30T10:10:02;13;11;8
66622;PMS5003;53493;50.888;20.650;2024-01-30T10:20:14;13;11;8
66622;PMS5003;53493;50.888;20.650;2024-01-30T10:40:02;12;11;7
66622;PMS5003;53493;50.888;20.650;2024-01-30T10:50:09;12;11;7
66622;PMS5003;53493;50.888;20.650;2024-01-30T11:00:16;12;11;7
66622;PMS5003;53493;50.888;20.650;2024-01-30T11:10:07;10;8;5
66622;PMS5003;53493;50.888;20.650;2024-01-30T11:20:16;10;8;5
66622;PMS5003;53493;50.888;20.650;2024-01-30T11:30:09;10;8;5
66622;PMS5003;53493;50.888;20.650;2024-01-30T11:40:16;17;11;7
66622;PMS5003;53493;50.888;20.650;2024-01-30T11:50:19;17;11;7
66622;PMS5003;53493;50.888;20.650;2024-01-30T12:10:25;11;8;4
66622;PMS5003;53493;50.888;20.650;2024-01-30T12:20:26;11;8;4
66622;PMS5003;53493;50.888;20.650;2024-01-30T12:40:26;10;7;5
66622;PMS5003;53493;50.888;20.650;2024-01-30T12:50:07;10;7;5
66622;PMS5003;53493;50.888;20.650;2024-01-30T13:00:17;10;7;5
66622;PMS5003;53493;50.888;20.650;2024-01-30T13:10:07;8;6;3
66622;PMS5003;53493;50.888;20.650;2024-01-30T13:40:07;6;5;3
66622;PMS5003;53493;50.888;20.650;2024-01-30T14:10:15;8;7;4
66622;PMS5003;53493;50.888;20.650;2024-01-30T14:20:09;8;7;4
66622;PMS5003;53493;50.888;20.650;2024-01-30T14:30:02;8;7;4
66622;PMS5003;53493;50.888;20.650;2024-01-30T14:40:19;13;8;4
66622;PMS5003;53493;50.888;20.650;2024-01-30T14:50:12;13;8;4
66622;PMS5003;53493;50.888;20.650;2024-01-30T15:00:13;13;8;4
66622;PMS5003;53493;50.888;20.650;2024-01-30T15:10:09;8;7;4
66622;PMS5003;53493;50.888;20.650;2024-01-30T15:20:16;8;7;4
66622;PMS5003;53493;50.888;20.650;2024-01-30T15:30:13;8;7;4
66622;PMS5003;53493;50.888;20.650;2024-01-30T15:40:10;18;12;7
66622;PMS5003;53493;50.888;20.650;2024-01-30T15:50:16;18;12;7
66622;PMS5003;53493;50.888;20.650;2024-01-30T16:00:09;18;12;7
66622;PMS5003;53493;50.888;20.650;2024-01-30T16:10:20;12;11;6
66622;PMS5003;53493;50.888;20.650;2024-01-30T16:50:07;23;20;12
66622;PMS5003;53493;50.888;20.650;2024-01-30T17:00:06;23;20;12
66622;PMS5003;53493;50.888;20.650;2024-01-30T17:50:06;26;22;13
66622;PMS5003;53493;50.888;20.650;2024-01-30T18:00:07;26;22;13
66622;PMS5003;53493;50.888;20.650;2024-01-30T18:20:03;21;17;12
66622;PMS5003;53493;50.888;20.650;2024-01-30T18:50:04;28;23;13
